sensor_id;sensor_type;location;lat;lon;timestamp;P1;durP1;ratioP1;P2;durP2;ratioP2
5622;SDS011;2833;50.432;10.706;2023-05-10T00:02:20;4.60;;;3.60;;
5622;SDS011;2833;50.432;10.706;2023-05-10T00:04:45;4.20;;;3.63;;
5622;SDS011;2833;50.432;10.706;2023-05-10T00:07:10;6.10;;;3.37;;
5622;SDS011;2833;50.432;10.706;2023-05-10T00:09:35;6.97;;;4.47;;
5622;SDS011;2833;50.432;10.706;2023-05-10T00:12:00;5.73;;;3.73;;
5622;SDS011;2833;50.432;10.706;2023-05-10T00:14:26;3.93;;;3.63;;
5622;SDS011;2833;50.432;10.706;2023-05-10T00:16:51;6.83;;;3.93;;
5622;SDS011;2833;50.432;10.706;2023-05-10T00:19:16;9.43;;;3.43;;
5622;SDS011;2833;50.432;10.706;2023-05-10T00:21:41;3.87;;;3.57;;
5622;SDS011;2833;50.432;10.706;2023-05-10T00:24:06;4.20;;;3.60;;
5622;SDS011;2833;50.432;10.706;2023-05-10T00:26:31;4.00;;;3.03;;
5622;SDS011;2833;50.432;10.706;2023-05-10T00:28:57;4.27;;;3.93;;
5622;SDS011;2833;50.432;10.706;2023-05-10T00:31:23;6.70;;;3.70;;
5622;SDS011;2833;50.432;10.706;2023-05-10T00:33:48;8.90;;;4.40;;
5622;SDS011;2833;50.432;10.706;2023-05-10T00:36:13;6.70;;;3.33;;
5622;SDS011;2833;50.432;10.706;2023-05-10T00:38:38;4.00;;;3.63;;
5622;SDS011;2833;50.432;10.706;2023-05-10T00:41:04;4.90;;;3.77;;
5622;SDS011;2833;50.432;10.706;2023-05-10T00:43:29;5.83;;;3.67;;
5622;SDS011;2833;50.432;10.706;2023-05-10T00:45:54;3.93;;;3.50;;
5622;SDS011;2833;50.432;10.706;2023-05-10T00:48:20;3.90;;;3.47;;
5622;SDS011;2833;50.432;10.706;2023-05-10T00:50:45;5.93;;;4.10;;
5622;SDS011;2833;50.432;10.706;2023-05-10T00:53:11;4.93;;;3.90;;
5622;SDS011;2833;50.432;10.706;2023-05-10T00:55:36;4.43;;;4.00;;
5622;SDS011;2833;50.432;10.706;2023-05-10T00:58:02;5.77;;;3.67;;
5622;SDS011;2833;50.432;10.706;2023-05-10T01:00:27;8.20;;;4.30;;
5622;SDS011;2833;50.432;10.706;2023-05-10T01:02:53;4.50;;;3.93;;
5622;SDS011;2833;50.432;10.706;2023-05-10T01:05:18;6.70;;;4.40;;
5622;SDS011;2833;50.432;10.706;2023-05-10T01:07:43;4.10;;;3.70;;
5622;SDS011;2833;50.432;10.706;2023-05-10T01:10:09;11.93;;;4.00;;
5622;SDS011;2833;50.432;10.706;2023-05-10T01:12:35;5.50;;;5.00;;
5622;SDS011;2833;50.432;10.706;2023-05-10T01:15:01;4.10;;;3.70;;
5622;SDS011;2833;50.432;10.706;2023-05-10T01:17:27;4.83;;;4.00;;
5622;SDS011;2833;50.432;10.706;2023-05-10T01:19:52;4.67;;;4.10;;
5622;SDS011;2833;50.432;10.706;2023-05-10T01:22:39;3.93;;;3.60;;
5622;SDS011;2833;50.432;10.706;2023-05-10T01:25:31;4.10;;;3.70;;
5622;SDS011;2833;50.432;10.706;2023-05-10T01:33:10;5.73;;;4.23;;
5622;SDS011;2833;50.432;10.706;2023-05-10T01:35:52;4.67;;;3.87;;
5622;SDS011;2833;50.432;10.706;2023-05-10T01:38:31;4.73;;;4.03;;
5622;SDS011;2833;50.432;10.706;2023-05-10T01:41:43;5.00;;;4.30;;
5622;SDS011;2833;50.432;10.706;2023-05-10T01:46:17;4.30;;;3.90;;
5622;SDS011;2833;50.432;10.706;2023-05-10T01:48:48;5.50;;;4.57;;
5622;SDS011;2833;50.432;10.706;2023-05-10T01:51:16;4.33;;;3.93;;
5622;SDS011;2833;50.432;10.706;2023-05-10T01:53:44;5.10;;;4.60;;
5622;SDS011;2833;50.432;10.706;2023-05-10T01:56:11;6.37;;;4.60;;
5622;SDS011;2833;50.432;10.706;2023-05-10T01:58:37;4.67;;;4.20;;
5622;SDS011;2833;50.432;10.706;2023-05-10T02:01:04;5.60;;;4.83;;
5622;SDS011;2833;50.432;10.706;2023-05-10T02:03:30;5.63;;;4.77;;
5622;SDS011;2833;50.432;10.706;2023-05-10T02:05:57;5.80;;;4.60;;
5622;SDS011;2833;50.432;10.706;2023-05-10T02:08:22;6.40;;;4.20;;
5622;SDS011;2833;50.432;10.706;2023-05-10T02:10:49;9.10;;;4.30;;
5622;SDS011;2833;50.432;10.706;2023-05-10T02:13:15;5.00;;;4.07;;
5622;SDS011;2833;50.432;10.706;2023-05-10T02:15:40;6.47;;;4.90;;
5622;SDS011;2833;50.432;10.706;2023-05-10T02:18:06;5.30;;;4.80;;
5622;SDS011;2833;50.432;10.706;2023-05-10T02:20:32;5.87;;;4.90;;
5622;SDS011;2833;50.432;10.706;2023-05-10T02:22:58;6.30;;;4.90;;
5622;SDS011;2833;50.432;10.706;2023-05-10T02:25:24;6.57;;;5.07;;
5622;SDS011;2833;50.432;10.706;2023-05-10T02:27:50;5.20;;;4.70;;
5622;SDS011;2833;50.432;10.706;2023-05-10T02:30:16;9.30;;;5.37;;
5622;SDS011;2833;50.432;10.706;2023-05-10T02:32:42;5.63;;;5.07;;
5622;SDS011;2833;50.432;10.706;2023-05-10T02:35:08;5.20;;;4.40;;
5622;SDS011;2833;50.432;10.706;2023-05-10T02:37:34;6.10;;;4.83;;
5622;SDS011;2833;50.432;10.706;2023-05-10T02:40:00;6.10;;;5.03;;
5622;SDS011;2833;50.432;10.706;2023-05-10T02:42:28;4.87;;;4.47;;
5622;SDS011;2833;50.432;10.706;2023-05-10T02:44:56;8.83;;;5.40;;
5622;SDS011;2833;50.432;10.706;2023-05-10T02:47:21;5.50;;;4.90;;
5622;SDS011;2833;50.432;10.706;2023-05-10T02:49:46;7.03;;;5.10;;
5622;SDS011;2833;50.432;10.706;2023-05-10T02:52:12;6.67;;;4.73;;
5622;SDS011;2833;50.432;10.706;2023-05-10T02:54:41;8.20;;;7.00;;
5622;SDS011;2833;50.432;10.706;2023-05-10T02:57:08;6.90;;;4.73;;
5622;SDS011;2833;50.432;10.706;2023-05-10T02:59:35;6.10;;;4.90;;
5622;SDS011;2833;50.432;10.706;2023-05-10T03:02:00;8.10;;;5.27;;
5622;SDS011;2833;50.432;10.706;2023-05-10T03:04:26;7.17;;;5.80;;
5622;SDS011;2833;50.432;10.706;2023-05-10T03:06:52;6.23;;;5.60;;
5622;SDS011;2833;50.432;10.706;2023-05-10T03:09:17;13.50;;;5.00;;
5622;SDS011;2833;50.432;10.706;2023-05-10T03:11:56;7.17;;;5.60;;
5622;SDS011;2833;50.432;10.706;2023-05-10T03:17:10;4.93;;;4.53;;
5622;SDS011;2833;50.432;10.706;2023-05-10T03:22:10;10.93;;;5.57;;
5622;SDS011;2833;50.432;10.706;2023-05-10T03:24:38;6.63;;;5.23;;
5622;SDS011;2833;50.432;10.706;2023-05-10T03:27:04;9.10;;;5.47;;
5622;SDS011;2833;50.432;10.706;2023-05-10T03:29:29;5.87;;;5.23;;
5622;SDS011;2833;50.432;10.706;2023-05-10T03:31:57;5.83;;;4.83;;
5622;SDS011;2833;50.432;10.706;2023-05-10T03:34:25;6.93;;;5.57;;
5622;SDS011;2833;50.432;10.706;2023-05-10T03:36:50;12.70;;;6.10;;
5622;SDS011;2833;50.432;10.706;2023-05-10T03:39:15;6.43;;;5.20;;
5622;SDS011;2833;50.432;10.706;2023-05-10T03:41:40;8.17;;;5.67;;
5622;SDS011;2833;50.432;10.706;2023-05-10T03:44:06;6.73;;;5.67;;
5622;SDS011;2833;50.432;10.706;2023-05-10T03:46:31;7.27;;;5.30;;
5622;SDS011;2833;50.432;10.706;2023-05-10T03:48:56;9.03;;;5.97;;
5622;SDS011;2833;50.432;10.706;2023-05-10T03:51:22;5.90;;;5.30;;
5622;SDS011;2833;50.432;10.706;2023-05-10T03:53:47;8.73;;;5.43;;
5622;SDS011;2833;50.432;10.706;2023-05-10T03:56:12;6.67;;;5.53;;
5622;SDS011;2833;50.432;10.706;2023-05-10T03:58:37;6.47;;;5.50;;
5622;SDS011;2833;50.432;10.706;2023-05-10T04:01:03;8.33;;;6.40;;
5622;SDS011;2833;50.432;10.706;2023-05-10T04:03:28;8.10;;;6.30;;
5622;SDS011;2833;50.432;10.706;2023-05-10T04:06:00;7.03;;;5.67;;
5622;SDS011;2833;50.432;10.706;2023-05-10T04:08:26;7.90;;;6.17;;
5622;SDS011;2833;50.432;10.706;2023-05-10T04:10:51;9.47;;;6.50;;
5622;SDS011;2833;50.432;10.706;2023-05-10T04:13:16;8.10;;;6.13;;
5622;SDS011;2833;50.432;10.706;2023-05-10T04:15:41;7.00;;;5.60;;
5622;SDS011;2833;50.432;10.706;2023-05-10T04:18:06;8.97;;;5.97;;
5622;SDS011;2833;50.432;10.706;2023-05-10T04:20:32;7.40;;;5.60;;
5622;SDS011;2833;50.432;10.706;2023-05-10T04:22:57;6.30;;;5.20;;
5622;SDS011;2833;50.432;10.706;2023-05-10T04:25:22;6.60;;;5.37;;
5622;SDS011;2833;50.432;10.706;2023-05-10T04:27:47;5.20;;;4.70;;
5622;SDS011;2833;50.432;10.706;2023-05-10T04:30:12;7.13;;;4.83;;
5622;SDS011;2833;50.432;10.706;2023-05-10T04:32:38;6.43;;;4.90;;
5622;SDS011;2833;50.432;10.706;2023-05-10T04:35:03;5.40;;;4.90;;
5622;SDS011;2833;50.432;10.706;2023-05-10T04:37:29;7.07;;;4.90;;
5622;SDS011;2833;50.432;10.706;2023-05-10T04:39:54;5.00;;;4.50;;
5622;SDS011;2833;50.432;10.706;2023-05-10T04:42:20;8.27;;;5.13;;
5622;SDS011;2833;50.432;10.706;2023-05-10T04:44:45;7.60;;;4.60;;
5622;SDS011;2833;50.432;10.706;2023-05-10T04:47:10;5.40;;;4.00;;
5622;SDS011;2833;50.432;10.706;2023-05-10T04:49:36;3.90;;;3.60;;
5622;SDS011;2833;50.432;10.706;2023-05-10T04:52:01;4.97;;;4.47;;
5622;SDS011;2833;50.432;10.706;2023-05-10T04:54:27;4.87;;;4.33;;
5622;SDS011;2833;50.432;10.706;2023-05-10T04:56:52;4.93;;;4.33;;
5622;SDS011;2833;50.432;10.706;2023-05-10T04:59:17;5.80;;;4.80;;
5622;SDS011;2833;50.432;10.706;2023-05-10T05:01:42;4.20;;;3.80;;
5622;SDS011;2833;50.432;10.706;2023-05-10T05:04:08;7.17;;;4.57;;
5622;SDS011;2833;50.432;10.706;2023-05-10T05:06:33;5.03;;;3.90;;
5622;SDS011;2833;50.432;10.706;2023-05-10T05:08:58;4.50;;;4.00;;
5622;SDS011;2833;50.432;10.706;2023-05-10T05:11:23;5.80;;;5.00;;
5622;SDS011;2833;50.432;10.706;2023-05-10T05:13:50;5.43;;;4.37;;
5622;SDS011;2833;50.432;10.706;2023-05-10T05:16:15;4.17;;;3.73;;
5622;SDS011;2833;50.432;10.706;2023-05-10T05:18:40;5.97;;;3.70;;
5622;SDS011;2833;50.432;10.706;2023-05-10T05:21:18;4.30;;;3.30;;
5622;SDS011;2833;50.432;10.706;2023-05-10T05:23:43;4.17;;;3.70;;
5622;SDS011;2833;50.432;10.706;2023-05-10T05:26:09;3.53;;;3.23;;
5622;SDS011;2833;50.432;10.706;2023-05-10T05:28:34;2.57;;;2.37;;
5622;SDS011;2833;50.432;10.706;2023-05-10T05:31:02;1.93;;;1.83;;
5622;SDS011;2833;50.432;10.706;2023-05-10T05:33:27;2.40;;;2.20;;
5622;SDS011;2833;50.432;10.706;2023-05-10T05:35:52;2.00;;;1.90;;
5622;SDS011;2833;50.432;10.706;2023-05-10T05:38:17;1.67;;;1.57;;
5622;SDS011;2833;50.432;10.706;2023-05-10T05:40:43;1.53;;;1.30;;
5622;SDS011;2833;50.432;10.706;2023-05-10T05:43:08;1.60;;;1.50;;
5622;SDS011;2833;50.432;10.706;2023-05-10T05:45:33;2.20;;;1.30;;
5622;SDS011;2833;50.432;10.706;2023-05-10T05:47:58;1.40;;;1.30;;
5622;SDS011;2833;50.432;10.706;2023-05-10T05:50:23;1.10;;;1.10;;
5622;SDS011;2833;50.432;10.706;2023-05-10T05:52:48;3.07;;;1.20;;
5622;SDS011;2833;50.432;10.706;2023-05-10T05:55:14;1.20;;;1.10;;
5622;SDS011;2833;50.432;10.706;2023-05-10T05:57:39;1.40;;;1.30;;
5622;SDS011;2833;50.432;10.706;2023-05-10T06:00:04;1.10;;;1.07;;
5622;SDS011;2833;50.432;10.706;2023-05-10T06:02:30;1.07;;;1.07;;
5622;SDS011;2833;50.432;10.706;2023-05-10T06:04:55;0.93;;;0.93;;
5622;SDS011;2833;50.432;10.706;2023-05-10T06:07:20;1.10;;;1.00;;
5622;SDS011;2833;50.432;10.706;2023-05-10T06:09:46;0.93;;;0.93;;
5622;SDS011;2833;50.432;10.706;2023-05-10T06:12:11;1.53;;;0.90;;
5622;SDS011;2833;50.432;10.706;2023-05-10T06:14:36;2.60;;;1.90;;
5622;SDS011;2833;50.432;10.706;2023-05-10T06:17:02;1.67;;;1.30;;
5622;SDS011;2833;50.432;10.706;2023-05-10T06:19:28;1.00;;;1.00;;
5622;SDS011;2833;50.432;10.706;2023-05-10T06:21:54;1.20;;;1.20;;
5622;SDS011;2833;50.432;10.706;2023-05-10T06:24:19;1.27;;;1.00;;
5622;SDS011;2833;50.432;10.706;2023-05-10T06:26:44;1.00;;;1.00;;
5622;SDS011;2833;50.432;10.706;2023-05-10T06:29:10;1.10;;;1.10;;
5622;SDS011;2833;50.432;10.706;2023-05-10T06:31:35;1.30;;;1.20;;
5622;SDS011;2833;50.432;10.706;2023-05-10T06:34:00;1.10;;;1.10;;
5622;SDS011;2833;50.432;10.706;2023-05-10T06:36:25;1.40;;;1.30;;
5622;SDS011;2833;50.432;10.706;2023-05-10T06:38:53;1.10;;;1.10;;
5622;SDS011;2833;50.432;10.706;2023-05-10T06:41:18;1.20;;;1.10;;
5622;SDS011;2833;50.432;10.706;2023-05-10T06:43:43;1.00;;;1.00;;
5622;SDS011;2833;50.432;10.706;2023-05-10T06:46:08;1.10;;;1.10;;
5622;SDS011;2833;50.432;10.706;2023-05-10T06:48:34;1.10;;;1.00;;
5622;SDS011;2833;50.432;10.706;2023-05-10T06:50:59;0.90;;;0.90;;
5622;SDS011;2833;50.432;10.706;2023-05-10T06:53:24;1.23;;;1.07;;
5622;SDS011;2833;50.432;10.706;2023-05-10T06:55:50;1.00;;;1.00;;
5622;SDS011;2833;50.432;10.706;2023-05-10T06:58:15;1.00;;;1.00;;
5622;SDS011;2833;50.432;10.706;2023-05-10T07:00:41;1.20;;;1.10;;
5622;SDS011;2833;50.432;10.706;2023-05-10T07:03:08;0.90;;;0.90;;
5622;SDS011;2833;50.432;10.706;2023-05-10T07:05:33;1.20;;;1.10;;
5622;SDS011;2833;50.432;10.706;2023-05-10T07:07:59;0.90;;;0.90;;
5622;SDS011;2833;50.432;10.706;2023-05-10T07:10:24;1.00;;;0.90;;
5622;SDS011;2833;50.432;10.706;2023-05-10T07:12:50;0.90;;;0.90;;
5622;SDS011;2833;50.432;10.706;2023-05-10T07:15:15;1.20;;;1.10;;
5622;SDS011;2833;50.432;10.706;2023-05-10T07:17:40;4.50;;;0.90;;
5622;SDS011;2833;50.432;10.706;2023-05-10T07:20:06;1.00;;;1.00;;
5622;SDS011;2833;50.432;10.706;2023-05-10T07:22:31;2.30;;;1.13;;
5622;SDS011;2833;50.432;10.706;2023-05-10T07:24:57;1.00;;;1.00;;
5622;SDS011;2833;50.432;10.706;2023-05-10T07:27:23;1.07;;;1.07;;
5622;SDS011;2833;50.432;10.706;2023-05-10T07:29:48;1.00;;;1.00;;
5622;SDS011;2833;50.432;10.706;2023-05-10T07:32:13;1.10;;;1.10;;
5622;SDS011;2833;50.432;10.706;2023-05-10T07:34:39;1.10;;;1.10;;
5622;SDS011;2833;50.432;10.706;2023-05-10T07:37:04;1.10;;;1.10;;
5622;SDS011;2833;50.432;10.706;2023-05-10T07:39:31;1.20;;;1.10;;
5622;SDS011;2833;50.432;10.706;2023-05-10T07:41:56;1.10;;;1.10;;
5622;SDS011;2833;50.432;10.706;2023-05-10T07:44:21;1.10;;;1.10;;
5622;SDS011;2833;50.432;10.706;2023-05-10T07:46:47;1.03;;;1.03;;
5622;SDS011;2833;50.432;10.706;2023-05-10T07:49:13;1.13;;;1.13;;
5622;SDS011;2833;50.432;10.706;2023-05-10T07:51:38;1.77;;;1.67;;
5622;SDS011;2833;50.432;10.706;2023-05-10T07:54:03;3.30;;;1.27;;
5622;SDS011;2833;50.432;10.706;2023-05-10T07:56:29;1.40;;;1.30;;
5622;SDS011;2833;50.432;10.706;2023-05-10T07:58:55;1.70;;;1.60;;
5622;SDS011;2833;50.432;10.706;2023-05-10T08:01:21;1.23;;;1.23;;
5622;SDS011;2833;50.432;10.706;2023-05-10T08:03:46;1.93;;;1.67;;
5622;SDS011;2833;50.432;10.706;2023-05-10T08:06:11;1.60;;;1.50;;
5622;SDS011;2833;50.432;10.706;2023-05-10T08:08:37;2.13;;;1.87;;
5622;SDS011;2833;50.432;10.706;2023-05-10T08:11:03;1.50;;;1.40;;
5622;SDS011;2833;50.432;10.706;2023-05-10T08:13:28;1.90;;;1.80;;
5622;SDS011;2833;50.432;10.706;2023-05-10T08:15:53;1.77;;;1.67;;
5622;SDS011;2833;50.432;10.706;2023-05-10T08:18:19;1.97;;;1.87;;
5622;SDS011;2833;50.432;10.706;2023-05-10T08:20:44;2.10;;;2.00;;
5622;SDS011;2833;50.432;10.706;2023-05-10T08:23:09;1.93;;;1.83;;
5622;SDS011;2833;50.432;10.706;2023-05-10T08:25:34;2.10;;;2.00;;
5622;SDS011;2833;50.432;10.706;2023-05-10T08:27:59;1.90;;;1.80;;
5622;SDS011;2833;50.432;10.706;2023-05-10T08:30:25;1.70;;;1.60;;
5622;SDS011;2833;50.432;10.706;2023-05-10T08:32:50;1.80;;;1.70;;
5622;SDS011;2833;50.432;10.706;2023-05-10T08:35:15;1.63;;;1.53;;
5622;SDS011;2833;50.432;10.706;2023-05-10T08:37:40;1.80;;;1.70;;
5622;SDS011;2833;50.432;10.706;2023-05-10T08:40:06;2.07;;;1.97;;
5622;SDS011;2833;50.432;10.706;2023-05-10T08:42:31;2.10;;;1.90;;
5622;SDS011;2833;50.432;10.706;2023-05-10T08:44:58;2.10;;;2.00;;
5622;SDS011;2833;50.432;10.706;2023-05-10T08:47:24;2.00;;;1.67;;
5622;SDS011;2833;50.432;10.706;2023-05-10T08:49:50;3.17;;;1.80;;
5622;SDS011;2833;50.432;10.706;2023-05-10T08:52:16;2.00;;;1.80;;
5622;SDS011;2833;50.432;10.706;2023-05-10T08:54:42;2.00;;;1.90;;
5622;SDS011;2833;50.432;10.706;2023-05-10T08:57:07;1.90;;;1.73;;
5622;SDS011;2833;50.432;10.706;2023-05-10T08:59:33;1.70;;;1.60;;
5622;SDS011;2833;50.432;10.706;2023-05-10T09:01:58;4.13;;;2.30;;
5622;SDS011;2833;50.432;10.706;2023-05-10T09:04:24;2.63;;;1.87;;
5622;SDS011;2833;50.432;10.706;2023-05-10T09:06:50;1.70;;;1.60;;
5622;SDS011;2833;50.432;10.706;2023-05-10T09:09:15;1.73;;;1.63;;
5622;SDS011;2833;50.432;10.706;2023-05-10T09:11:41;1.80;;;1.70;;
5622;SDS011;2833;50.432;10.706;2023-05-10T09:14:06;1.60;;;1.50;;
5622;SDS011;2833;50.432;10.706;2023-05-10T09:16:31;2.40;;;1.57;;
5622;SDS011;2833;50.432;10.706;2023-05-10T09:18:57;1.80;;;1.70;;
5622;SDS011;2833;50.432;10.706;2023-05-10T09:21:22;2.03;;;1.57;;
5622;SDS011;2833;50.432;10.706;2023-05-10T09:23:47;2.03;;;1.93;;
5622;SDS011;2833;50.432;10.706;2023-05-10T09:26:14;2.10;;;2.00;;
5622;SDS011;2833;50.432;10.706;2023-05-10T09:28:53;1.90;;;1.80;;
5622;SDS011;2833;50.432;10.706;2023-05-10T09:31:19;3.37;;;3.00;;
5622;SDS011;2833;50.432;10.706;2023-05-10T09:33:45;2.83;;;2.33;;
5622;SDS011;2833;50.432;10.706;2023-05-10T09:36:11;2.73;;;2.53;;
5622;SDS011;2833;50.432;10.706;2023-05-10T09:38:49;2.50;;;2.30;;
5622;SDS011;2833;50.432;10.706;2023-05-10T09:41:18;2.53;;;2.33;;
5622;SDS011;2833;50.432;10.706;2023-05-10T09:43:43;1.90;;;1.80;;
5622;SDS011;2833;50.432;10.706;2023-05-10T09:46:09;1.87;;;1.50;;
5622;SDS011;2833;50.432;10.706;2023-05-10T09:48:37;2.53;;;1.43;;
5622;SDS011;2833;50.432;10.706;2023-05-10T09:51:06;1.80;;;1.70;;
5622;SDS011;2833;50.432;10.706;2023-05-10T09:53:31;7.40;;;1.90;;
5622;SDS011;2833;50.432;10.706;2023-05-10T09:55:56;2.13;;;1.70;;
5622;SDS011;2833;50.432;10.706;2023-05-10T09:58:21;2.00;;;1.90;;
5622;SDS011;2833;50.432;10.706;2023-05-10T10:00:47;1.67;;;1.57;;
5622;SDS011;2833;50.432;10.706;2023-05-10T10:03:18;1.63;;;1.53;;
5622;SDS011;2833;50.432;10.706;2023-05-10T10:05:44;1.53;;;1.43;;
5622;SDS011;2833;50.432;10.706;2023-05-10T10:08:11;2.17;;;1.70;;
5622;SDS011;2833;50.432;10.706;2023-05-10T10:10:37;2.43;;;2.23;;
5622;SDS011;2833;50.432;10.706;2023-05-10T10:13:03;2.23;;;2.00;;
5622;SDS011;2833;50.432;10.706;2023-05-10T10:15:29;2.33;;;1.60;;
5622;SDS011;2833;50.432;10.706;2023-05-10T10:17:55;1.67;;;1.57;;
5622;SDS011;2833;50.432;10.706;2023-05-10T10:20:20;1.60;;;1.50;;
5622;SDS011;2833;50.432;10.706;2023-05-10T10:22:46;6.53;;;3.33;;
5622;SDS011;2833;50.432;10.706;2023-05-10T10:25:12;6.33;;;3.80;;
5622;SDS011;2833;50.432;10.706;2023-05-10T10:30:29;1.53;;;1.43;;
5622;SDS011;2833;50.432;10.706;2023-05-10T10:35:38;2.40;;;1.87;;
5622;SDS011;2833;50.432;10.706;2023-05-10T10:38:03;3.37;;;1.60;;
5622;SDS011;2833;50.432;10.706;2023-05-10T10:40:30;2.03;;;1.73;;
5622;SDS011;2833;50.432;10.706;2023-05-10T10:42:56;1.63;;;1.53;;
5622;SDS011;2833;50.432;10.706;2023-05-10T10:45:22;1.70;;;1.60;;
5622;SDS011;2833;50.432;10.706;2023-05-10T10:47:47;1.20;;;1.20;;
5622;SDS011;2833;50.432;10.706;2023-05-10T10:50:13;1.30;;;1.20;;
5622;SDS011;2833;50.432;10.706;2023-05-10T10:52:39;1.30;;;1.20;;
5622;SDS011;2833;50.432;10.706;2023-05-10T10:57:49;1.27;;;1.20;;
5622;SDS011;2833;50.432;10.706;2023-05-10T11:00:17;1.30;;;1.20;;
5622;SDS011;2833;50.432;10.706;2023-05-10T11:02:50;1.50;;;1.40;;
5622;SDS011;2833;50.432;10.706;2023-05-10T11:05:26;1.33;;;1.23;;
5622;SDS011;2833;50.432;10.706;2023-05-10T11:07:58;2.00;;;1.77;;
5622;SDS011;2833;50.432;10.706;2023-05-10T11:10:24;2.00;;;1.90;;
5622;SDS011;2833;50.432;10.706;2023-05-10T11:12:59;1.83;;;1.73;;
5622;SDS011;2833;50.432;10.706;2023-05-10T11:15:29;1.50;;;1.40;;
5622;SDS011;2833;50.432;10.706;2023-05-10T11:17:55;2.80;;;2.60;;
5622;SDS011;2833;50.432;10.706;2023-05-10T11:20:20;1.70;;;1.60;;
5622;SDS011;2833;50.432;10.706;2023-05-10T11:22:49;1.57;;;1.43;;
5622;SDS011;2833;50.432;10.706;2023-05-10T11:25:16;1.60;;;1.50;;
5622;SDS011;2833;50.432;10.706;2023-05-10T11:27:41;1.60;;;1.50;;
5622;SDS011;2833;50.432;10.706;2023-05-10T11:30:07;1.73;;;1.63;;
5622;SDS011;2833;50.432;10.706;2023-05-10T11:32:32;1.80;;;1.70;;
5622;SDS011;2833;50.432;10.706;2023-05-10T11:34:58;1.70;;;1.60;;
5622;SDS011;2833;50.432;10.706;2023-05-10T11:37:23;1.80;;;1.70;;
5622;SDS011;2833;50.432;10.706;2023-05-10T11:39:48;2.10;;;2.00;;
5622;SDS011;2833;50.432;10.706;2023-05-10T11:42:13;2.23;;;1.90;;
5622;SDS011;2833;50.432;10.706;2023-05-10T11:44:38;2.00;;;1.90;;
5622;SDS011;2833;50.432;10.706;2023-05-10T11:47:04;2.00;;;1.90;;
5622;SDS011;2833;50.432;10.706;2023-05-10T11:49:30;2.33;;;2.23;;
5622;SDS011;2833;50.432;10.706;2023-05-10T11:52:05;2.10;;;2.00;;
5622;SDS011;2833;50.432;10.706;2023-05-10T11:54:31;2.40;;;2.30;;
5622;SDS011;2833;50.432;10.706;2023-05-10T11:56:56;2.17;;;2.03;;
5622;SDS011;2833;50.432;10.706;2023-05-10T11:59:21;2.30;;;2.10;;
5622;SDS011;2833;50.432;10.706;2023-05-10T12:01:46;1.87;;;1.77;;
5622;SDS011;2833;50.432;10.706;2023-05-10T12:04:11;1.97;;;1.87;;
5622;SDS011;2833;50.432;10.706;2023-05-10T12:06:37;1.80;;;1.70;;
5622;SDS011;2833;50.432;10.706;2023-05-10T12:09:05;2.20;;;1.90;;
5622;SDS011;2833;50.432;10.706;2023-05-10T12:11:32;3.57;;;2.23;;
5622;SDS011;2833;50.432;10.706;2023-05-10T12:13:57;2.00;;;1.90;;
5622;SDS011;2833;50.432;10.706;2023-05-10T12:16:23;3.60;;;2.20;;
5622;SDS011;2833;50.432;10.706;2023-05-10T12:18:49;1.50;;;1.40;;
5622;SDS011;2833;50.432;10.706;2023-05-10T12:21:15;2.03;;;1.93;;
5622;SDS011;2833;50.432;10.706;2023-05-10T12:23:41;2.90;;;2.70;;
5622;SDS011;2833;50.432;10.706;2023-05-10T12:26:08;2.60;;;2.40;;
5622;SDS011;2833;50.432;10.706;2023-05-10T12:28:33;2.20;;;2.00;;
5622;SDS011;2833;50.432;10.706;2023-05-10T12:30:59;1.90;;;1.80;;
5622;SDS011;2833;50.432;10.706;2023-05-10T12:33:24;3.63;;;2.73;;
5622;SDS011;2833;50.432;10.706;2023-05-10T12:35:50;2.13;;;2.00;;
5622;SDS011;2833;50.432;10.706;2023-05-10T12:38:26;2.00;;;1.90;;
5622;SDS011;2833;50.432;10.706;2023-05-10T12:40:51;2.17;;;2.07;;
5622;SDS011;2833;50.432;10.706;2023-05-10T12:43:17;2.53;;;2.27;;
5622;SDS011;2833;50.432;10.706;2023-05-10T12:45:42;1.83;;;1.73;;
5622;SDS011;2833;50.432;10.706;2023-05-10T12:48:07;1.80;;;1.70;;
5622;SDS011;2833;50.432;10.706;2023-05-10T12:50:32;1.70;;;1.60;;
5622;SDS011;2833;50.432;10.706;2023-05-10T12:52:57;4.23;;;1.30;;
5622;SDS011;2833;50.432;10.706;2023-05-10T12:55:23;1.00;;;1.00;;
5622;SDS011;2833;50.432;10.706;2023-05-10T12:57:48;1.27;;;1.17;;
5622;SDS011;2833;50.432;10.706;2023-05-10T13:00:13;2.33;;;1.30;;
5622;SDS011;2833;50.432;10.706;2023-05-10T13:02:39;1.27;;;1.20;;
5622;SDS011;2833;50.432;10.706;2023-05-10T13:05:04;1.27;;;1.03;;
5622;SDS011;2833;50.432;10.706;2023-05-10T13:07:30;1.20;;;1.10;;
5622;SDS011;2833;50.432;10.706;2023-05-10T13:09:55;1.50;;;1.33;;
5622;SDS011;2833;50.432;10.706;2023-05-10T13:12:21;1.20;;;1.13;;
5622;SDS011;2833;50.432;10.706;2023-05-10T13:14:46;2.80;;;1.30;;
5622;SDS011;2833;50.432;10.706;2023-05-10T13:17:11;1.63;;;1.43;;
5622;SDS011;2833;50.432;10.706;2023-05-10T13:19:36;2.03;;;1.63;;
5622;SDS011;2833;50.432;10.706;2023-05-10T13:22:02;1.70;;;1.43;;
5622;SDS011;2833;50.432;10.706;2023-05-10T13:24:28;2.00;;;1.50;;
5622;SDS011;2833;50.432;10.706;2023-05-10T13:26:53;1.60;;;1.50;;
5622;SDS011;2833;50.432;10.706;2023-05-10T13:29:18;1.63;;;1.53;;
5622;SDS011;2833;50.432;10.706;2023-05-10T13:31:44;1.87;;;1.77;;
5622;SDS011;2833;50.432;10.706;2023-05-10T13:34:09;1.60;;;1.50;;
5622;SDS011;2833;50.432;10.706;2023-05-10T13:36:34;2.70;;;1.60;;
5622;SDS011;2833;50.432;10.706;2023-05-10T13:38:59;1.40;;;1.30;;
5622;SDS011;2833;50.432;10.706;2023-05-10T13:41:27;3.40;;;1.97;;
5622;SDS011;2833;50.432;10.706;2023-05-10T13:43:52;1.80;;;1.70;;
5622;SDS011;2833;50.432;10.706;2023-05-10T13:46:18;2.20;;;2.00;;
5622;SDS011;2833;50.432;10.706;2023-05-10T13:48:43;1.83;;;1.70;;
5622;SDS011;2833;50.432;10.706;2023-05-10T13:51:08;1.57;;;1.47;;
5622;SDS011;2833;50.432;10.706;2023-05-10T13:53:34;1.60;;;1.50;;
5622;SDS011;2833;50.432;10.706;2023-05-10T13:55:59;1.40;;;1.30;;
5622;SDS011;2833;50.432;10.706;2023-05-10T13:58:24;1.30;;;1.20;;
5622;SDS011;2833;50.432;10.706;2023-05-10T14:00:49;0.80;;;0.80;;
5622;SDS011;2833;50.432;10.706;2023-05-10T14:03:14;1.07;;;1.07;;
5622;SDS011;2833;50.432;10.706;2023-05-10T14:05:40;1.10;;;1.10;;
5622;SDS011;2833;50.432;10.706;2023-05-10T14:08:05;1.20;;;1.10;;
5622;SDS011;2833;50.432;10.706;2023-05-10T14:10:30;0.97;;;0.97;;
5622;SDS011;2833;50.432;10.706;2023-05-10T14:12:55;1.30;;;1.20;;
5622;SDS011;2833;50.432;10.706;2023-05-10T14:15:20;1.37;;;1.27;;
5622;SDS011;2833;50.432;10.706;2023-05-10T14:17:46;1.30;;;1.20;;
5622;SDS011;2833;50.432;10.706;2023-05-10T14:20:11;0.90;;;0.90;;
5622;SDS011;2833;50.432;10.706;2023-05-10T14:22:36;1.20;;;1.10;;
5622;SDS011;2833;50.432;10.706;2023-05-10T14:25:01;0.90;;;0.90;;
5622;SDS011;2833;50.432;10.706;2023-05-10T14:27:27;1.30;;;1.20;;
5622;SDS011;2833;50.432;10.706;2023-05-10T14:29:52;1.40;;;1.30;;
5622;SDS011;2833;50.432;10.706;2023-05-10T14:32:18;4.03;;;1.20;;
5622;SDS011;2833;50.432;10.706;2023-05-10T14:34:43;1.77;;;1.33;;
5622;SDS011;2833;50.432;10.706;2023-05-10T14:37:10;1.60;;;1.50;;
5622;SDS011;2833;50.432;10.706;2023-05-10T14:39:35;7.27;;;1.80;;
5622;SDS011;2833;50.432;10.706;2023-05-10T14:42:00;1.60;;;1.50;;
5622;SDS011;2833;50.432;10.706;2023-05-10T14:44:27;3.10;;;2.40;;
5622;SDS011;2833;50.432;10.706;2023-05-10T14:46:52;1.70;;;1.60;;
5622;SDS011;2833;50.432;10.706;2023-05-10T14:49:17;1.20;;;1.10;;
5622;SDS011;2833;50.432;10.706;2023-05-10T14:51:43;1.10;;;0.93;;
5622;SDS011;2833;50.432;10.706;2023-05-10T14:54:08;1.20;;;1.10;;
5622;SDS011;2833;50.432;10.706;2023-05-10T14:56:33;1.70;;;1.60;;
5622;SDS011;2833;50.432;10.706;2023-05-10T14:58:58;1.53;;;1.23;;
5622;SDS011;2833;50.432;10.706;2023-05-10T15:01:25;1.30;;;1.20;;
5622;SDS011;2833;50.432;10.706;2023-05-10T15:03:50;2.40;;;1.20;;
5622;SDS011;2833;50.432;10.706;2023-05-10T15:06:15;1.10;;;1.10;;
5622;SDS011;2833;50.432;10.706;2023-05-10T15:08:41;3.53;;;1.47;;
5622;SDS011;2833;50.432;10.706;2023-05-10T15:11:06;2.47;;;2.27;;
5622;SDS011;2833;50.432;10.706;2023-05-10T15:13:31;1.60;;;1.30;;
5622;SDS011;2833;50.432;10.706;2023-05-10T15:15:57;1.93;;;1.40;;